Melton Constable, United Kingdom
Current Conditions -  °F | °C
As of 6:50 AM on Sunday 23 Nov 2014 (Local Time) from EGSH Reporting Station
Moderate Rain Moderate Rain  
Wind Chill: 52°   Ceiling: 1300
Heat Index: 52°   Visibility: 1.5mi
Dew Point: 50°   Wind: 5mph
Humidity: 94%   Direction: 320°NW
Pressure: 29.94"   Gusts: NA
Location:  52.87°N, 1.08°E
Report Text: EGSH 230650Z 32004KT 280V360 2500 RA BR SCT003 BKN013 11/10 Q1014 BECMG 5000 BKN015
Loading
Personal Weather Stations






























Interactive Weather Map New forecast layout! Learn more

10-Day Weather Forecast

Advertisements
Track Severe Weather on mobile